sensor_id;sensor_type;location;lat;lon;timestamp;P1;durP1;ratioP1;P2;durP2;ratioP2
47872;SDS011;73966;47.438;18.912;2024-02-21T00:00:21;5.65;;;4.87;;
47872;SDS011;73966;47.438;18.912;2024-02-21T00:02:53;5.15;;;4.65;;
47872;SDS011;73966;47.438;18.912;2024-02-21T00:08:05;4.70;;;4.28;;
47872;SDS011;73966;47.438;18.912;2024-02-21T00:10:35;5.35;;;4.80;;
47872;SDS011;73966;47.438;18.912;2024-02-21T00:13:04;6.07;;;4.28;;
47872;SDS011;73966;47.438;18.912;2024-02-21T00:15:33;8.13;;;4.37;;
47872;SDS011;73966;47.438;18.912;2024-02-21T00:18:08;6.37;;;3.92;;
47872;SDS011;73966;47.438;18.912;2024-02-21T00:20:38;8.90;;;3.65;;
47872;SDS011;73966;47.438;18.912;2024-02-21T00:23:09;3.37;;;2.85;;
47872;SDS011;73966;47.438;18.912;2024-02-21T00:25:39;3.80;;;2.95;;
47872;SDS011;73966;47.438;18.912;2024-02-21T00:28:08;3.67;;;3.37;;
47872;SDS011;73966;47.438;18.912;2024-02-21T00:30:40;4.40;;;2.78;;
47872;SDS011;73966;47.438;18.912;2024-02-21T00:33:10;3.33;;;2.60;;
47872;SDS011;73966;47.438;18.912;2024-02-21T00:35:39;2.58;;;2.22;;
47872;SDS011;73966;47.438;18.912;2024-02-21T00:38:10;3.85;;;3.28;;
47872;SDS011;73966;47.438;18.912;2024-02-21T00:40:39;4.65;;;2.50;;
47872;SDS011;73966;47.438;18.912;2024-02-21T00:43:09;5.12;;;2.35;;
47872;SDS011;73966;47.438;18.912;2024-02-21T00:48:21;2.70;;;2.15;;
47872;SDS011;73966;47.438;18.912;2024-02-21T00:50:50;4.30;;;2.58;;
47872;SDS011;73966;47.438;18.912;2024-02-21T00:53:21;4.20;;;2.50;;
47872;SDS011;73966;47.438;18.912;2024-02-21T00:55:56;5.25;;;3.00;;
47872;SDS011;73966;47.438;18.912;2024-02-21T00:58:25;3.87;;;2.67;;
47872;SDS011;73966;47.438;18.912;2024-02-21T01:00:58;5.28;;;2.72;;
47872;SDS011;73966;47.438;18.912;2024-02-21T01:03:27;3.37;;;2.22;;
47872;SDS011;73966;47.438;18.912;2024-02-21T01:06:02;5.12;;;3.50;;
47872;SDS011;73966;47.438;18.912;2024-02-21T01:08:33;6.80;;;3.50;;
47872;SDS011;73966;47.438;18.912;2024-02-21T01:11:06;4.93;;;3.25;;
47872;SDS011;73966;47.438;18.912;2024-02-21T01:13:36;4.60;;;2.75;;
47872;SDS011;73966;47.438;18.912;2024-02-21T01:16:05;5.68;;;3.58;;
47872;SDS011;73966;47.438;18.912;2024-02-21T01:18:37;4.95;;;3.03;;
47872;SDS011;73966;47.438;18.912;2024-02-21T01:21:07;4.80;;;2.90;;
47872;SDS011;73966;47.438;18.912;2024-02-21T01:23:39;3.55;;;2.30;;
47872;SDS011;73966;47.438;18.912;2024-02-21T01:26:08;4.62;;;3.12;;
47872;SDS011;73966;47.438;18.912;2024-02-21T01:28:40;4.72;;;3.15;;
47872;SDS011;73966;47.438;18.912;2024-02-21T01:31:10;5.62;;;3.78;;
47872;SDS011;73966;47.438;18.912;2024-02-21T01:33:41;7.50;;;3.42;;
47872;SDS011;73966;47.438;18.912;2024-02-21T01:36:11;5.53;;;3.60;;
47872;SDS011;73966;47.438;18.912;2024-02-21T01:38:42;6.50;;;3.83;;
47872;SDS011;73966;47.438;18.912;2024-02-21T01:41:11;4.45;;;3.80;;
47872;SDS011;73966;47.438;18.912;2024-02-21T01:43:40;6.85;;;3.97;;
47872;SDS011;73966;47.438;18.912;2024-02-21T01:46:16;5.57;;;3.47;;
47872;SDS011;73966;47.438;18.912;2024-02-21T01:48:48;4.18;;;3.60;;
47872;SDS011;73966;47.438;18.912;2024-02-21T01:51:17;6.60;;;3.92;;
47872;SDS011;73966;47.438;18.912;2024-02-21T01:53:48;4.97;;;3.72;;
47872;SDS011;73966;47.438;18.912;2024-02-21T01:56:19;7.57;;;4.20;;
47872;SDS011;73966;47.438;18.912;2024-02-21T01:58:50;5.12;;;3.53;;
47872;SDS011;73966;47.438;18.912;2024-02-21T02:01:19;3.70;;;3.37;;
47872;SDS011;73966;47.438;18.912;2024-02-21T02:03:50;6.68;;;3.67;;
47872;SDS011;73966;47.438;18.912;2024-02-21T02:06:21;5.35;;;4.10;;
47872;SDS011;73966;47.438;18.912;2024-02-21T02:08:52;8.52;;;3.80;;
47872;SDS011;73966;47.438;18.912;2024-02-21T02:11:22;4.97;;;3.62;;
47872;SDS011;73966;47.438;18.912;2024-02-21T02:13:52;5.43;;;3.55;;
47872;SDS011;73966;47.438;18.912;2024-02-21T02:16:22;4.60;;;3.42;;
47872;SDS011;73966;47.438;18.912;2024-02-21T02:18:51;6.30;;;4.10;;
47872;SDS011;73966;47.438;18.912;2024-02-21T02:21:23;7.00;;;4.80;;
47872;SDS011;73966;47.438;18.912;2024-02-21T02:24:05;6.05;;;4.32;;
47872;SDS011;73966;47.438;18.912;2024-02-21T02:26:35;7.28;;;4.70;;
47872;SDS011;73966;47.438;18.912;2024-02-21T02:29:05;7.32;;;4.25;;
47872;SDS011;73966;47.438;18.912;2024-02-21T02:31:34;7.15;;;5.03;;
47872;SDS011;73966;47.438;18.912;2024-02-21T02:34:05;9.40;;;4.00;;
47872;SDS011;73966;47.438;18.912;2024-02-21T02:36:35;7.03;;;4.22;;
47872;SDS011;73966;47.438;18.912;2024-02-21T02:39:06;7.93;;;3.75;;
47872;SDS011;73966;47.438;18.912;2024-02-21T02:41:35;6.87;;;4.10;;
47872;SDS011;73966;47.438;18.912;2024-02-21T02:44:05;6.00;;;4.07;;
47872;SDS011;73966;47.438;18.912;2024-02-21T02:46:34;6.07;;;3.87;;
47872;SDS011;73966;47.438;18.912;2024-02-21T02:49:03;5.70;;;3.30;;
47872;SDS011;73966;47.438;18.912;2024-02-21T02:51:33;5.28;;;3.12;;
47872;SDS011;73966;47.438;18.912;2024-02-21T02:54:02;9.05;;;3.67;;
47872;SDS011;73966;47.438;18.912;2024-02-21T02:56:33;6.28;;;3.65;;
47872;SDS011;73966;47.438;18.912;2024-02-21T02:59:03;12.75;;;6.80;;
47872;SDS011;73966;47.438;18.912;2024-02-21T03:01:33;14.57;;;9.43;;
47872;SDS011;73966;47.438;18.912;2024-02-21T03:04:03;9.73;;;6.00;;
47872;SDS011;73966;47.438;18.912;2024-02-21T03:06:32;6.75;;;4.10;;
47872;SDS011;73966;47.438;18.912;2024-02-21T03:09:01;7.43;;;4.72;;
47872;SDS011;73966;47.438;18.912;2024-02-21T03:11:37;9.48;;;4.60;;
47872;SDS011;73966;47.438;18.912;2024-02-21T03:14:08;13.60;;;6.53;;
47872;SDS011;73966;47.438;18.912;2024-02-21T03:16:38;7.50;;;3.95;;
47872;SDS011;73966;47.438;18.912;2024-02-21T03:19:08;6.62;;;3.92;;
47872;SDS011;73966;47.438;18.912;2024-02-21T03:21:36;3.72;;;3.20;;
47872;SDS011;73966;47.438;18.912;2024-02-21T03:24:06;7.68;;;3.47;;
47872;SDS011;73966;47.438;18.912;2024-02-21T03:26:37;9.15;;;4.03;;
47872;SDS011;73966;47.438;18.912;2024-02-21T03:29:08;6.85;;;3.90;;
47872;SDS011;73966;47.438;18.912;2024-02-21T03:31:37;6.22;;;3.62;;
47872;SDS011;73966;47.438;18.912;2024-02-21T03:34:06;7.15;;;4.28;;
47872;SDS011;73966;47.438;18.912;2024-02-21T03:36:36;5.82;;;3.25;;
47872;SDS011;73966;47.438;18.912;2024-02-21T03:39:05;4.47;;;3.35;;
47872;SDS011;73966;47.438;18.912;2024-02-21T03:41:36;6.37;;;3.72;;
47872;SDS011;73966;47.438;18.912;2024-02-21T03:44:06;7.65;;;3.50;;
47872;SDS011;73966;47.438;18.912;2024-02-21T03:46:38;5.82;;;3.95;;
47872;SDS011;73966;47.438;18.912;2024-02-21T03:49:08;4.47;;;3.35;;
47872;SDS011;73966;47.438;18.912;2024-02-21T03:54:13;8.32;;;3.75;;
47872;SDS011;73966;47.438;18.912;2024-02-21T03:56:44;7.68;;;4.45;;
47872;SDS011;73966;47.438;18.912;2024-02-21T03:59:16;8.30;;;3.87;;
47872;SDS011;73966;47.438;18.912;2024-02-21T04:01:45;7.05;;;3.42;;
47872;SDS011;73966;47.438;18.912;2024-02-21T04:04:15;8.45;;;3.72;;
47872;SDS011;73966;47.438;18.912;2024-02-21T04:06:47;6.35;;;3.80;;
47872;SDS011;73966;47.438;18.912;2024-02-21T04:09:16;5.35;;;3.72;;
47872;SDS011;73966;47.438;18.912;2024-02-21T04:11:47;8.18;;;4.12;;
47872;SDS011;73966;47.438;18.912;2024-02-21T04:14:15;8.02;;;4.35;;
47872;SDS011;73966;47.438;18.912;2024-02-21T04:16:48;6.25;;;3.30;;
47872;SDS011;73966;47.438;18.912;2024-02-21T04:19:21;5.32;;;4.22;;
47872;SDS011;73966;47.438;18.912;2024-02-21T04:21:50;7.68;;;4.68;;
47872;SDS011;73966;47.438;18.912;2024-02-21T04:24:19;6.05;;;3.65;;
47872;SDS011;73966;47.438;18.912;2024-02-21T04:26:50;11.50;;;4.40;;
47872;SDS011;73966;47.438;18.912;2024-02-21T04:29:19;6.62;;;3.80;;
47872;SDS011;73966;47.438;18.912;2024-02-21T04:31:51;6.53;;;4.20;;
47872;SDS011;73966;47.438;18.912;2024-02-21T04:34:20;7.05;;;4.25;;
47872;SDS011;73966;47.438;18.912;2024-02-21T04:39:22;7.93;;;4.25;;
47872;SDS011;73966;47.438;18.912;2024-02-21T04:41:52;7.10;;;4.97;;
47872;SDS011;73966;47.438;18.912;2024-02-21T04:44:23;6.60;;;4.00;;
47872;SDS011;73966;47.438;18.912;2024-02-21T04:46:58;6.85;;;4.43;;
47872;SDS011;73966;47.438;18.912;2024-02-21T04:49:28;8.38;;;5.00;;
47872;SDS011;73966;47.438;18.912;2024-02-21T04:51:57;11.55;;;5.97;;
47872;SDS011;73966;47.438;18.912;2024-02-21T04:54:27;8.07;;;5.40;;
47872;SDS011;73966;47.438;18.912;2024-02-21T04:56:57;10.60;;;4.60;;
47872;SDS011;73966;47.438;18.912;2024-02-21T04:59:27;9.82;;;5.95;;
47872;SDS011;73966;47.438;18.912;2024-02-21T05:01:59;7.12;;;5.28;;
47872;SDS011;73966;47.438;18.912;2024-02-21T05:04:29;11.32;;;6.93;;
47872;SDS011;73966;47.438;18.912;2024-02-21T05:06:59;10.65;;;6.68;;
47872;SDS011;73966;47.438;18.912;2024-02-21T05:09:29;10.95;;;8.32;;
47872;SDS011;73966;47.438;18.912;2024-02-21T05:12:00;13.50;;;7.80;;
47872;SDS011;73966;47.438;18.912;2024-02-21T05:14:29;11.05;;;6.78;;
47872;SDS011;73966;47.438;18.912;2024-02-21T05:19:35;13.18;;;5.90;;
47872;SDS011;73966;47.438;18.912;2024-02-21T05:22:04;8.82;;;5.20;;
47872;SDS011;73966;47.438;18.912;2024-02-21T05:24:33;5.15;;;4.55;;
47872;SDS011;73966;47.438;18.912;2024-02-21T05:27:11;6.40;;;4.95;;
47872;SDS011;73966;47.438;18.912;2024-02-21T05:29:40;9.07;;;4.78;;
47872;SDS011;73966;47.438;18.912;2024-02-21T05:32:09;9.15;;;4.68;;
47872;SDS011;73966;47.438;18.912;2024-02-21T05:34:48;10.35;;;4.90;;
47872;SDS011;73966;47.438;18.912;2024-02-21T05:37:17;7.32;;;4.60;;
47872;SDS011;73966;47.438;18.912;2024-02-21T05:39:49;6.18;;;5.10;;
47872;SDS011;73966;47.438;18.912;2024-02-21T05:42:20;9.80;;;5.20;;
47872;SDS011;73966;47.438;18.912;2024-02-21T05:44:49;15.18;;;5.22;;
47872;SDS011;73966;47.438;18.912;2024-02-21T05:47:18;8.25;;;5.22;;
47872;SDS011;73966;47.438;18.912;2024-02-21T05:49:48;8.82;;;5.35;;
47872;SDS011;73966;47.438;18.912;2024-02-21T05:52:18;9.00;;;4.70;;
47872;SDS011;73966;47.438;18.912;2024-02-21T05:54:47;10.45;;;4.50;;
47872;SDS011;73966;47.438;18.912;2024-02-21T05:57:19;7.10;;;5.28;;
47872;SDS011;73966;47.438;18.912;2024-02-21T05:59:48;6.95;;;4.97;;
47872;SDS011;73966;47.438;18.912;2024-02-21T06:02:21;9.57;;;5.18;;
47872;SDS011;73966;47.438;18.912;2024-02-21T06:04:51;6.37;;;4.35;;
47872;SDS011;73966;47.438;18.912;2024-02-21T06:07:20;6.93;;;5.53;;
47872;SDS011;73966;47.438;18.912;2024-02-21T06:09:49;11.60;;;6.28;;
47872;SDS011;73966;47.438;18.912;2024-02-21T06:12:20;7.82;;;5.35;;
47872;SDS011;73966;47.438;18.912;2024-02-21T06:14:49;10.77;;;5.50;;
47872;SDS011;73966;47.438;18.912;2024-02-21T06:17:19;11.73;;;5.97;;
47872;SDS011;73966;47.438;18.912;2024-02-21T06:19:51;8.50;;;5.10;;
47872;SDS011;73966;47.438;18.912;2024-02-21T06:22:20;12.37;;;5.62;;
47872;SDS011;73966;47.438;18.912;2024-02-21T06:24:49;6.65;;;4.70;;
47872;SDS011;73966;47.438;18.912;2024-02-21T06:27:18;5.53;;;4.15;;
47872;SDS011;73966;47.438;18.912;2024-02-21T06:29:48;8.07;;;4.80;;
47872;SDS011;73966;47.438;18.912;2024-02-21T06:32:21;10.68;;;5.10;;
47872;SDS011;73966;47.438;18.912;2024-02-21T06:34:51;10.88;;;5.32;;
47872;SDS011;73966;47.438;18.912;2024-02-21T06:37:20;11.10;;;5.80;;
47872;SDS011;73966;47.438;18.912;2024-02-21T06:39:49;10.25;;;6.32;;
47872;SDS011;73966;47.438;18.912;2024-02-21T06:42:18;6.75;;;4.85;;
47872;SDS011;73966;47.438;18.912;2024-02-21T06:44:51;9.68;;;4.57;;
47872;SDS011;73966;47.438;18.912;2024-02-21T06:47:24;7.50;;;4.47;;
47872;SDS011;73966;47.438;18.912;2024-02-21T06:49:52;9.48;;;5.12;;
47872;SDS011;73966;47.438;18.912;2024-02-21T06:52:22;7.50;;;4.07;;
47872;SDS011;73966;47.438;18.912;2024-02-21T06:54:52;11.25;;;5.75;;
47872;SDS011;73966;47.438;18.912;2024-02-21T06:57:21;12.43;;;4.20;;
47872;SDS011;73966;47.438;18.912;2024-02-21T06:59:52;9.00;;;3.95;;
47872;SDS011;73966;47.438;18.912;2024-02-21T07:02:24;7.18;;;4.30;;
47872;SDS011;73966;47.438;18.912;2024-02-21T07:07:22;7.90;;;4.07;;
47872;SDS011;73966;47.438;18.912;2024-02-21T07:09:55;5.62;;;3.65;;
47872;SDS011;73966;47.438;18.912;2024-02-21T07:12:24;7.05;;;4.07;;
47872;SDS011;73966;47.438;18.912;2024-02-21T07:14:54;7.20;;;3.20;;
47872;SDS011;73966;47.438;18.912;2024-02-21T07:17:24;8.73;;;4.10;;
47872;SDS011;73966;47.438;18.912;2024-02-21T07:19:54;5.97;;;3.67;;
47872;SDS011;73966;47.438;18.912;2024-02-21T07:22:24;6.87;;;4.37;;
47872;SDS011;73966;47.438;18.912;2024-02-21T07:24:54;8.38;;;4.85;;
47872;SDS011;73966;47.438;18.912;2024-02-21T07:27:23;6.70;;;2.95;;
47872;SDS011;73966;47.438;18.912;2024-02-21T07:32:28;5.72;;;3.58;;
47872;SDS011;73966;47.438;18.912;2024-02-21T07:34:57;5.37;;;3.90;;
47872;SDS011;73966;47.438;18.912;2024-02-21T07:37:27;5.97;;;3.90;;
47872;SDS011;73966;47.438;18.912;2024-02-21T07:40:03;12.15;;;4.50;;
47872;SDS011;73966;47.438;18.912;2024-02-21T07:42:33;5.82;;;2.72;;
47872;SDS011;73966;47.438;18.912;2024-02-21T07:45:06;9.52;;;4.78;;
47872;SDS011;73966;47.438;18.912;2024-02-21T07:47:36;6.18;;;3.30;;
47872;SDS011;73966;47.438;18.912;2024-02-21T07:50:09;6.68;;;3.30;;
47872;SDS011;73966;47.438;18.912;2024-02-21T07:52:39;7.30;;;4.00;;
47872;SDS011;73966;47.438;18.912;2024-02-21T07:55:08;9.05;;;4.60;;
47872;SDS011;73966;47.438;18.912;2024-02-21T07:57:38;9.68;;;3.80;;
47872;SDS011;73966;47.438;18.912;2024-02-21T08:00:09;7.40;;;3.95;;
47872;SDS011;73966;47.438;18.912;2024-02-21T08:02:48;9.25;;;3.90;;
47872;SDS011;73966;47.438;18.912;2024-02-21T08:05:17;7.78;;;4.10;;
47872;SDS011;73966;47.438;18.912;2024-02-21T08:07:49;6.72;;;3.50;;
47872;SDS011;73966;47.438;18.912;2024-02-21T08:10:21;6.15;;;3.58;;
47872;SDS011;73966;47.438;18.912;2024-02-21T08:12:50;7.40;;;3.95;;
47872;SDS011;73966;47.438;18.912;2024-02-21T08:15:21;6.12;;;3.90;;
47872;SDS011;73966;47.438;18.912;2024-02-21T08:17:53;8.40;;;4.10;;
47872;SDS011;73966;47.438;18.912;2024-02-21T08:20:29;7.18;;;3.95;;
47872;SDS011;73966;47.438;18.912;2024-02-21T08:22:59;5.97;;;4.57;;
47872;SDS011;73966;47.438;18.912;2024-02-21T08:25:28;14.15;;;4.53;;
47872;SDS011;73966;47.438;18.912;2024-02-21T08:27:57;6.80;;;4.47;;
47872;SDS011;73966;47.438;18.912;2024-02-21T08:30:29;7.45;;;3.45;;
47872;SDS011;73966;47.438;18.912;2024-02-21T08:32:58;5.97;;;3.62;;
47872;SDS011;73966;47.438;18.912;2024-02-21T08:35:28;8.40;;;4.25;;
47872;SDS011;73966;47.438;18.912;2024-02-21T08:37:57;9.02;;;3.58;;
47872;SDS011;73966;47.438;18.912;2024-02-21T08:40:26;6.43;;;4.22;;
47872;SDS011;73966;47.438;18.912;2024-02-21T08:42:55;6.95;;;4.40;;
47872;SDS011;73966;47.438;18.912;2024-02-21T08:45:24;8.10;;;4.55;;
47872;SDS011;73966;47.438;18.912;2024-02-21T08:47:57;7.85;;;4.62;;
47872;SDS011;73966;47.438;18.912;2024-02-21T08:50:27;8.93;;;4.28;;
47872;SDS011;73966;47.438;18.912;2024-02-21T08:52:57;9.23;;;4.72;;
47872;SDS011;73966;47.438;18.912;2024-02-21T08:55:26;6.53;;;5.32;;
47872;SDS011;73966;47.438;18.912;2024-02-21T08:57:55;11.15;;;6.53;;
47872;SDS011;73966;47.438;18.912;2024-02-21T09:00:24;12.32;;;6.10;;
47872;SDS011;73966;47.438;18.912;2024-02-21T09:03:00;10.48;;;5.57;;
47872;SDS011;73966;47.438;18.912;2024-02-21T09:05:29;7.65;;;4.55;;
47872;SDS011;73966;47.438;18.912;2024-02-21T09:07:58;10.95;;;4.68;;
47872;SDS011;73966;47.438;18.912;2024-02-21T09:10:27;9.63;;;4.72;;
47872;SDS011;73966;47.438;18.912;2024-02-21T09:12:56;13.48;;;4.78;;
47872;SDS011;73966;47.438;18.912;2024-02-21T09:15:25;6.97;;;4.07;;
47872;SDS011;73966;47.438;18.912;2024-02-21T09:17:57;11.75;;;4.65;;
47872;SDS011;73966;47.438;18.912;2024-02-21T09:20:28;6.60;;;5.03;;
47872;SDS011;73966;47.438;18.912;2024-02-21T09:22:57;10.35;;;4.35;;
47872;SDS011;73966;47.438;18.912;2024-02-21T09:25:27;7.18;;;3.80;;
47872;SDS011;73966;47.438;18.912;2024-02-21T09:27:59;6.50;;;4.35;;
47872;SDS011;73966;47.438;18.912;2024-02-21T09:30:30;13.02;;;4.90;;
47872;SDS011;73966;47.438;18.912;2024-02-21T09:33:05;11.35;;;5.32;;
47872;SDS011;73966;47.438;18.912;2024-02-21T09:35:36;8.90;;;4.57;;
47872;SDS011;73966;47.438;18.912;2024-02-21T09:38:04;8.65;;;3.97;;
47872;SDS011;73966;47.438;18.912;2024-02-21T09:40:34;13.98;;;4.30;;
47872;SDS011;73966;47.438;18.912;2024-02-21T09:43:06;8.25;;;4.00;;
47872;SDS011;73966;47.438;18.912;2024-02-21T09:45:35;9.15;;;4.40;;
47872;SDS011;73966;47.438;18.912;2024-02-21T09:48:17;10.57;;;4.87;;
47872;SDS011;73966;47.438;18.912;2024-02-21T09:51:03;11.68;;;5.68;;
47872;SDS011;73966;47.438;18.912;2024-02-21T09:53:37;13.77;;;4.75;;
47872;SDS011;73966;47.438;18.912;2024-02-21T09:56:07;10.50;;;4.25;;
47872;SDS011;73966;47.438;18.912;2024-02-21T09:58:46;9.70;;;4.65;;
47872;SDS011;73966;47.438;18.912;2024-02-21T10:01:16;12.02;;;4.90;;
47872;SDS011;73966;47.438;18.912;2024-02-21T10:04:00;10.95;;;4.40;;
47872;SDS011;73966;47.438;18.912;2024-02-21T10:06:32;12.07;;;4.40;;
47872;SDS011;73966;47.438;18.912;2024-02-21T10:09:02;12.37;;;4.72;;
47872;SDS011;73966;47.438;18.912;2024-02-21T10:11:31;14.45;;;5.45;;
47872;SDS011;73966;47.438;18.912;2024-02-21T10:14:02;7.43;;;3.72;;
47872;SDS011;73966;47.438;18.912;2024-02-21T10:16:33;8.35;;;4.15;;
47872;SDS011;73966;47.438;18.912;2024-02-21T10:19:03;12.15;;;4.62;;
47872;SDS011;73966;47.438;18.912;2024-02-21T10:21:33;13.70;;;4.53;;
47872;SDS011;73966;47.438;18.912;2024-02-21T10:24:03;9.48;;;4.37;;
47872;SDS011;73966;47.438;18.912;2024-02-21T10:26:32;7.28;;;4.10;;
47872;SDS011;73966;47.438;18.912;2024-02-21T10:29:01;9.80;;;4.05;;
47872;SDS011;73966;47.438;18.912;2024-02-21T10:31:31;9.90;;;4.47;;
47872;SDS011;73966;47.438;18.912;2024-02-21T10:34:00;8.05;;;3.95;;
47872;SDS011;73966;47.438;18.912;2024-02-21T10:36:36;9.00;;;4.93;;
47872;SDS011;73966;47.438;18.912;2024-02-21T10:39:06;9.93;;;4.62;;
47872;SDS011;73966;47.438;18.912;2024-02-21T10:41:36;11.55;;;3.70;;
47872;SDS011;73966;47.438;18.912;2024-02-21T10:44:13;12.07;;;4.32;;
47872;SDS011;73966;47.438;18.912;2024-02-21T10:46:45;11.52;;;4.18;;
47872;SDS011;73966;47.438;18.912;2024-02-21T10:49:16;12.85;;;4.25;;
47872;SDS011;73966;47.438;18.912;2024-02-21T10:52:03;10.27;;;3.60;;
47872;SDS011;73966;47.438;18.912;2024-02-21T10:54:49;10.88;;;4.35;;
47872;SDS011;73966;47.438;18.912;2024-02-21T10:57:24;8.60;;;3.97;;
47872;SDS011;73966;47.438;18.912;2024-02-21T10:59:55;7.87;;;3.72;;
47872;SDS011;73966;47.438;18.912;2024-02-21T11:02:27;12.70;;;5.40;;
47872;SDS011;73966;47.438;18.912;2024-02-21T11:04:59;10.63;;;3.95;;
47872;SDS011;73966;47.438;18.912;2024-02-21T11:07:32;10.45;;;4.50;;
47872;SDS011;73966;47.438;18.912;2024-02-21T11:10:05;11.12;;;4.25;;
47872;SDS011;73966;47.438;18.912;2024-02-21T11:12:48;12.25;;;5.28;;
47872;SDS011;73966;47.438;18.912;2024-02-21T11:15:24;11.38;;;4.57;;
47872;SDS011;73966;47.438;18.912;2024-02-21T11:17:55;7.00;;;4.40;;
47872;SDS011;73966;47.438;18.912;2024-02-21T11:20:34;8.13;;;4.00;;
47872;SDS011;73966;47.438;18.912;2024-02-21T11:23:06;8.70;;;5.20;;
47872;SDS011;73966;47.438;18.912;2024-02-21T11:25:35;6.87;;;3.55;;
47872;SDS011;73966;47.438;18.912;2024-02-21T11:28:05;12.35;;;4.72;;
47872;SDS011;73966;47.438;18.912;2024-02-21T11:30:35;9.10;;;3.92;;
47872;SDS011;73966;47.438;18.912;2024-02-21T11:33:06;12.07;;;5.57;;
47872;SDS011;73966;47.438;18.912;2024-02-21T11:35:36;12.50;;;5.15;;
47872;SDS011;73966;47.438;18.912;2024-02-21T11:38:10;12.45;;;4.57;;
47872;SDS011;73966;47.438;18.912;2024-02-21T11:40:45;10.32;;;3.85;;
47872;SDS011;73966;47.438;18.912;2024-02-21T11:43:16;10.18;;;3.65;;
47872;SDS011;73966;47.438;18.912;2024-02-21T11:45:45;11.38;;;4.30;;
47872;SDS011;73966;47.438;18.912;2024-02-21T11:48:16;11.55;;;5.40;;
47872;SDS011;73966;47.438;18.912;2024-02-21T11:50:52;9.95;;;4.00;;
47872;SDS011;73966;47.438;18.912;2024-02-21T11:53:23;10.95;;;3.87;;
47872;SDS011;73966;47.438;18.912;2024-02-21T11:55:54;10.02;;;3.47;;
47872;SDS011;73966;47.438;18.912;2024-02-21T11:58:24;5.18;;;2.72;;
47872;SDS011;73966;47.438;18.912;2024-02-21T12:00:54;8.00;;;3.33;;
47872;SDS011;73966;47.438;18.912;2024-02-21T12:03:23;5.07;;;2.83;;
47872;SDS011;73966;47.438;18.912;2024-02-21T12:05:55;5.50;;;3.05;;
47872;SDS011;73966;47.438;18.912;2024-02-21T12:08:28;10.07;;;3.23;;
47872;SDS011;73966;47.438;18.912;2024-02-21T12:11:17;8.88;;;3.08;;
47872;SDS011;73966;47.438;18.912;2024-02-21T12:13:58;8.95;;;2.97;;
47872;SDS011;73966;47.438;18.912;2024-02-21T12:16:29;6.53;;;2.60;;
47872;SDS011;73966;47.438;18.912;2024-02-21T12:18:59;12.15;;;3.25;;
47872;SDS011;73966;47.438;18.912;2024-02-21T12:21:29;10.05;;;3.87;;
47872;SDS011;73966;47.438;18.912;2024-02-21T12:24:06;11.12;;;3.10;;
47872;SDS011;73966;47.438;18.912;2024-02-21T12:26:40;5.50;;;2.58;;
47872;SDS011;73966;47.438;18.912;2024-02-21T12:29:10;10.13;;;2.83;;
47872;SDS011;73966;47.438;18.912;2024-02-21T12:31:39;10.27;;;3.45;;
47872;SDS011;73966;47.438;18.912;2024-02-21T12:34:11;6.62;;;2.90;;
47872;SDS011;73966;47.438;18.912;2024-02-21T12:36:42;10.38;;;3.80;;
47872;SDS011;73966;47.438;18.912;2024-02-21T12:39:13;9.90;;;4.35;;
47872;SDS011;73966;47.438;18.912;2024-02-21T12:41:42;11.68;;;3.95;;
47872;SDS011;73966;47.438;18.912;2024-02-21T12:44:13;13.30;;;4.85;;
47872;SDS011;73966;47.438;18.912;2024-02-21T12:46:43;8.90;;;4.25;;
47872;SDS011;73966;47.438;18.912;2024-02-21T12:49:13;10.60;;;4.85;;
47872;SDS011;73966;47.438;18.912;2024-02-21T12:51:43;9.50;;;3.92;;
47872;SDS011;73966;47.438;18.912;2024-02-21T12:54:16;8.50;;;3.40;;
47872;SDS011;73966;47.438;18.912;2024-02-21T12:56:46;10.90;;;4.85;;
47872;SDS011;73966;47.438;18.912;2024-02-21T12:59:15;9.52;;;3.78;;
47872;SDS011;73966;47.438;18.912;2024-02-21T13:01:44;7.85;;;3.60;;
47872;SDS011;73966;47.438;18.912;2024-02-21T13:04:14;11.82;;;4.35;;
47872;SDS011;73966;47.438;18.912;2024-02-21T13:06:47;10.77;;;3.87;;
47872;SDS011;73966;47.438;18.912;2024-02-21T13:09:17;7.75;;;3.85;;
47872;SDS011;73966;47.438;18.912;2024-02-21T13:11:47;8.30;;;5.37;;
47872;SDS011;73966;47.438;18.912;2024-02-21T13:14:19;14.30;;;3.90;;
47872;SDS011;73966;47.438;18.912;2024-02-21T13:16:50;8.13;;;3.40;;
47872;SDS011;73966;47.438;18.912;2024-02-21T13:19:19;8.45;;;3.17;;
47872;SDS011;73966;47.438;18.912;2024-02-21T13:21:49;9.80;;;3.42;;
47872;SDS011;73966;47.438;18.912;2024-02-21T13:24:23;6.50;;;3.50;;
47872;SDS011;73966;47.438;18.912;2024-02-21T13:26:52;10.27;;;3.42;;
47872;SDS011;73966;47.438;18.912;2024-02-21T13:29:27;6.28;;;4.47;;
47872;SDS011;73966;47.438;18.912;2024-02-21T13:31:56;9.13;;;3.20;;
47872;SDS011;73966;47.438;18.912;2024-02-21T13:34:29;10.20;;;3.75;;
47872;SDS011;73966;47.438;18.912;2024-02-21T13:37:00;7.37;;;3.12;;
47872;SDS011;73966;47.438;18.912;2024-02-21T13:42:03;9.82;;;3.00;;
47872;SDS011;73966;47.438;18.912;2024-02-21T13:44:33;6.90;;;3.33;;
47872;SDS011;73966;47.438;18.912;2024-02-21T13:47:02;14.00;;;3.55;;
47872;SDS011;73966;47.438;18.912;2024-02-21T13:49:31;7.22;;;3.12;;
47872;SDS011;73966;47.438;18.912;2024-02-21T13:52:06;8.77;;;3.27;;
47872;SDS011;73966;47.438;18.912;2024-02-21T13:54:38;11.82;;;3.67;;
47872;SDS011;73966;47.438;18.912;2024-02-21T13:57:08;13.25;;;3.05;;
47872;SDS011;73966;47.438;18.912;2024-02-21T13:59:36;8.05;;;2.72;;
47872;SDS011;73966;47.438;18.912;2024-02-21T14:02:07;8.20;;;3.40;;
47872;SDS011;73966;47.438;18.912;2024-02-21T14:04:37;9.48;;;3.53;;
47872;SDS011;73966;47.438;18.912;2024-02-21T14:07:09;7.90;;;3.75;;
47872;SDS011;73966;47.438;18.912;2024-02-21T14:09:40;12.30;;;4.03;;
47872;SDS011;73966;47.438;18.912;2024-02-21T14:12:09;11.12;;;4.45;;
47872;SDS011;73966;47.438;18.912;2024-02-21T14:14:45;8.65;;;3.75;;
47872;SDS011;73966;47.438;18.912;2024-02-21T14:17:15;10.57;;;3.65;;
47872;SDS011;73966;47.438;18.912;2024-02-21T14:19:45;6.78;;;2.62;;
47872;SDS011;73966;47.438;18.912;2024-02-21T14:24:55;9.30;;;3.03;;
47872;SDS011;73966;47.438;18.912;2024-02-21T14:27:25;9.25;;;3.03;;
47872;SDS011;73966;47.438;18.912;2024-02-21T14:29:54;6.80;;;2.87;;
47872;SDS011;73966;47.438;18.912;2024-02-21T14:32:23;10.20;;;2.95;;
47872;SDS011;73966;47.438;18.912;2024-02-21T14:34:53;7.87;;;3.60;;
47872;SDS011;73966;47.438;18.912;2024-02-21T14:37:29;8.05;;;3.37;;
47872;SDS011;73966;47.438;18.912;2024-02-21T14:39:59;9.38;;;3.72;;
47872;SDS011;73966;47.438;18.912;2024-02-21T14:42:29;5.00;;;2.70;;
47872;SDS011;73966;47.438;18.912;2024-02-21T14:44:58;11.07;;;3.33;;
47872;SDS011;73966;47.438;18.912;2024-02-21T14:47:32;8.55;;;2.92;;
47872;SDS011;73966;47.438;18.912;2024-02-21T14:50:02;6.90;;;2.85;;
47872;SDS011;73966;47.438;18.912;2024-02-21T14:52:35;10.50;;;4.10;;
47872;SDS011;73966;47.438;18.912;2024-02-21T14:55:07;4.30;;;2.72;;
47872;SDS011;73966;47.438;18.912;2024-02-21T14:57:37;9.80;;;3.77;;
47872;SDS011;73966;47.438;18.912;2024-02-21T15:00:09;5.25;;;2.95;;
47872;SDS011;73966;47.438;18.912;2024-02-21T15:02:39;7.37;;;3.17;;
47872;SDS011;73966;47.438;18.912;2024-02-21T15:05:08;8.35;;;3.12;;
47872;SDS011;73966;47.438;18.912;2024-02-21T15:07:43;7.80;;;3.00;;
47872;SDS011;73966;47.438;18.912;2024-02-21T15:10:13;8.00;;;3.47;;
47872;SDS011;73966;47.438;18.912;2024-02-21T15:12:46;7.57;;;2.55;;
47872;SDS011;73966;47.438;18.912;2024-02-21T15:15:16;7.22;;;2.58;;